sensor_id;sensor_type;location;lat;lon;timestamp;temperature;humidity
12520;DHT22;6325;49.540;8.364;2022-11-13T03:50:10;6.60;99.90
12520;DHT22;6325;49.540;8.364;2022-11-13T05:15:32;6.90;99.90
12520;DHT22;6325;49.540;8.364;2022-11-13T05:25:43;6.40;99.90
12520;DHT22;6325;49.540;8.364;2022-11-13T05:47:02;6.50;99.90
12520;DHT22;6325;49.540;8.364;2022-11-13T08:27:07;7.30;99.90
12520;DHT22;6325;49.540;8.364;2022-11-13T08:29:35;7.10;99.90
12520;DHT22;6325;49.540;8.364;2022-11-13T08:32:02;6.80;99.90
12520;DHT22;6325;49.540;8.364;2022-11-13T08:34:29;6.30;99.90
12520;DHT22;6325;49.540;8.364;2022-11-13T08:36:56;6.80;99.90
12520;DHT22;6325;49.540;8.364;2022-11-13T08:39:23;6.60;99.90
12520;DHT22;6325;49.540;8.364;2022-11-13T08:41:50;6.80;99.90
12520;DHT22;6325;49.540;8.364;2022-11-13T08:44:20;6.80;99.90
12520;DHT22;6325;49.540;8.364;2022-11-13T08:46:47;7.40;99.90
12520;DHT22;6325;49.540;8.364;2022-11-13T08:49:14;6.90;99.90
12520;DHT22;6325;49.540;8.364;2022-11-13T08:51:41;6.30;99.90
12520;DHT22;6325;49.540;8.364;2022-11-13T08:54:08;7.20;99.90
12520;DHT22;6325;49.540;8.364;2022-11-13T08:56:35;6.60;99.90
12520;DHT22;6325;49.540;8.364;2022-11-13T08:59:03;6.20;99.90
12520;DHT22;6325;49.540;8.364;2022-11-13T09:01:31;6.70;99.90
12520;DHT22;6325;49.540;8.364;2022-11-13T09:03:58;6.90;99.90
12520;DHT22;6325;49.540;8.364;2022-11-13T09:06:27;7.40;99.90
12520;DHT22;6325;49.540;8.364;2022-11-13T09:08:54;7.10;99.90
12520;DHT22;6325;49.540;8.364;2022-11-13T09:11:21;6.90;99.90
12520;DHT22;6325;49.540;8.364;2022-11-13T09:13:48;6.90;99.90
12520;DHT22;6325;49.540;8.364;2022-11-13T09:16:15;7.00;99.90
12520;DHT22;6325;49.540;8.364;2022-11-13T09:18:48;6.50;99.90
12520;DHT22;6325;49.540;8.364;2022-11-13T09:21:15;7.20;99.90
12520;DHT22;6325;49.540;8.364;2022-11-13T09:23:42;7.60;99.90
12520;DHT22;6325;49.540;8.364;2022-11-13T09:26:12;7.20;99.90
12520;DHT22;6325;49.540;8.364;2022-11-13T09:28:39;7.30;99.90
12520;DHT22;6325;49.540;8.364;2022-11-13T09:31:06;7.00;99.90
12520;DHT22;6325;49.540;8.364;2022-11-13T09:33:33;7.70;99.90
12520;DHT22;6325;49.540;8.364;2022-11-13T09:36:02;7.40;99.90
12520;DHT22;6325;49.540;8.364;2022-11-13T09:38:31;7.40;99.90
12520;DHT22;6325;49.540;8.364;2022-11-13T09:41:11;7.30;99.90
12520;DHT22;6325;49.540;8.364;2022-11-13T09:43:41;6.90;99.90
12520;DHT22;6325;49.540;8.364;2022-11-13T09:46:16;7.60;99.90
12520;DHT22;6325;49.540;8.364;2022-11-13T09:48:49;7.60;99.90
12520;DHT22;6325;49.540;8.364;2022-11-13T09:51:24;7.80;99.90
12520;DHT22;6325;49.540;8.364;2022-11-13T09:53:53;7.70;99.90
12520;DHT22;6325;49.540;8.364;2022-11-13T09:56:27;7.70;99.90
12520;DHT22;6325;49.540;8.364;2022-11-13T09:59:04;8.00;99.90
12520;DHT22;6325;49.540;8.364;2022-11-13T10:01:39;8.10;99.90
12520;DHT22;6325;49.540;8.364;2022-11-13T10:04:10;8.60;99.90
12520;DHT22;6325;49.540;8.364;2022-11-13T10:06:56;8.30;99.90
12520;DHT22;6325;49.540;8.364;2022-11-13T10:09:35;8.20;99.90
12520;DHT22;6325;49.540;8.364;2022-11-13T10:12:06;7.50;99.90
12520;DHT22;6325;49.540;8.364;2022-11-13T10:14:36;7.50;99.90
12520;DHT22;6325;49.540;8.364;2022-11-13T10:17:12;7.90;99.90
12520;DHT22;6325;49.540;8.364;2022-11-13T10:19:46;7.70;99.90
12520;DHT22;6325;49.540;8.364;2022-11-13T10:22:20;8.30;99.90
12520;DHT22;6325;49.540;8.364;2022-11-13T10:24:51;7.50;99.90
12520;DHT22;6325;49.540;8.364;2022-11-13T10:27:19;8.70;99.90
12520;DHT22;6325;49.540;8.364;2022-11-13T10:29:51;8.10;99.90
12520;DHT22;6325;49.540;8.364;2022-11-13T10:32:20;8.60;99.90
12520;DHT22;6325;49.540;8.364;2022-11-13T10:34:51;8.40;99.90
12520;DHT22;6325;49.540;8.364;2022-11-13T10:37:41;8.90;99.90
12520;DHT22;6325;49.540;8.364;2022-11-13T10:40:12;8.20;99.90
12520;DHT22;6325;49.540;8.364;2022-11-13T10:42:53;9.10;99.90
12520;DHT22;6325;49.540;8.364;2022-11-13T10:45:23;9.40;99.90
12520;DHT22;6325;49.540;8.364;2022-11-13T10:47:54;9.70;99.90
12520;DHT22;6325;49.540;8.364;2022-11-13T10:50:35;9.00;99.90
12520;DHT22;6325;49.540;8.364;2022-11-13T10:53:15;9.30;99.90
12520;DHT22;6325;49.540;8.364;2022-11-13T10:55:43;9.30;99.90
12520;DHT22;6325;49.540;8.364;2022-11-13T10:58:13;9.30;99.90
12520;DHT22;6325;49.540;8.364;2022-11-13T11:00:42;9.60;99.90
12520;DHT22;6325;49.540;8.364;2022-11-13T11:03:14;9.40;99.90
12520;DHT22;6325;49.540;8.364;2022-11-13T11:05:51;9.80;99.90
12520;DHT22;6325;49.540;8.364;2022-11-13T11:08:25;10.10;99.90
12520;DHT22;6325;49.540;8.364;2022-11-13T11:10:58;10.00;99.90
12520;DHT22;6325;49.540;8.364;2022-11-13T11:14:41;10.30;99.90
12520;DHT22;6325;49.540;8.364;2022-11-13T11:17:37;9.90;99.90
12520;DHT22;6325;49.540;8.364;2022-11-13T11:21:01;10.20;99.90
12520;DHT22;6325;49.540;8.364;2022-11-13T11:57:27;11.00;99.90
12520;DHT22;6325;49.540;8.364;2022-11-13T12:00:37;11.40;99.90
12520;DHT22;6325;49.540;8.364;2022-11-13T12:07:18;11.70;99.90
12520;DHT22;6325;49.540;8.364;2022-11-13T12:10:45;12.60;99.90
12520;DHT22;6325;49.540;8.364;2022-11-13T12:17:17;12.30;99.90
12520;DHT22;6325;49.540;8.364;2022-11-13T12:20:02;13.20;99.90
12520;DHT22;6325;49.540;8.364;2022-11-13T12:23:06;14.40;99.90
12520;DHT22;6325;49.540;8.364;2022-11-13T12:26:22;15.20;99.90
12520;DHT22;6325;49.540;8.364;2022-11-13T12:29:07;16.50;99.90
12520;DHT22;6325;49.540;8.364;2022-11-13T12:32:27;15.90;99.90
12520;DHT22;6325;49.540;8.364;2022-11-13T12:35:16;16.20;99.90
12520;DHT22;6325;49.540;8.364;2022-11-13T12:38:16;17.00;99.90
12520;DHT22;6325;49.540;8.364;2022-11-13T12:41:31;16.90;99.90
12520;DHT22;6325;49.540;8.364;2022-11-13T12:58:09;14.00;99.90
12520;DHT22;6325;49.540;8.364;2022-11-13T13:01:00;14.20;99.90
12520;DHT22;6325;49.540;8.364;2022-11-13T13:04:13;14.40;99.90
12520;DHT22;6325;49.540;8.364;2022-11-13T13:06:57;13.50;99.90
12520;DHT22;6325;49.540;8.364;2022-11-13T13:09:39;13.70;99.90
12520;DHT22;6325;49.540;8.364;2022-11-13T13:12:31;13.00;99.90
12520;DHT22;6325;49.540;8.364;2022-11-13T13:15:11;12.80;99.90
12520;DHT22;6325;49.540;8.364;2022-11-13T13:17:46;12.80;99.90
12520;DHT22;6325;49.540;8.364;2022-11-13T13:20:32;12.90;99.90
12520;DHT22;6325;49.540;8.364;2022-11-13T13:23:23;12.90;99.90
12520;DHT22;6325;49.540;8.364;2022-11-13T13:26:02;13.30;99.90
12520;DHT22;6325;49.540;8.364;2022-11-13T13:28:31;14.80;99.90
12520;DHT22;6325;49.540;8.364;2022-11-13T13:31:36;14.10;99.90
12520;DHT22;6325;49.540;8.364;2022-11-13T13:34:28;14.30;99.90
12520;DHT22;6325;49.540;8.364;2022-11-13T13:37:13;13.60;99.90
12520;DHT22;6325;49.540;8.364;2022-11-13T13:40:02;13.30;99.90
12520;DHT22;6325;49.540;8.364;2022-11-13T13:42:56;13.50;99.90
12520;DHT22;6325;49.540;8.364;2022-11-13T13:45:30;13.50;99.90
12520;DHT22;6325;49.540;8.364;2022-11-13T13:48:31;13.00;99.90
12520;DHT22;6325;49.540;8.364;2022-11-13T13:51:30;13.00;99.90
12520;DHT22;6325;49.540;8.364;2022-11-13T13:54:21;13.00;99.90
12520;DHT22;6325;49.540;8.364;2022-11-13T13:57:09;13.60;99.90
12520;DHT22;6325;49.540;8.364;2022-11-13T13:59:45;12.80;99.90
12520;DHT22;6325;49.540;8.364;2022-11-13T14:02:21;13.00;99.90
12520;DHT22;6325;49.540;8.364;2022-11-13T14:05:30;12.80;99.90
12520;DHT22;6325;49.540;8.364;2022-11-13T14:08:20;13.00;99.90
12520;DHT22;6325;49.540;8.364;2022-11-13T14:17:38;13.10;99.90
12520;DHT22;6325;49.540;8.364;2022-11-13T14:27:46;13.30;99.90
12520;DHT22;6325;49.540;8.364;2022-11-13T15:20:03;12.60;99.90
12520;DHT22;6325;49.540;8.364;2022-11-13T15:23:02;11.50;99.90
12520;DHT22;6325;49.540;8.364;2022-11-13T15:26:02;11.60;99.90
12520;DHT22;6325;49.540;8.364;2022-11-13T15:29:07;11.50;99.90
12520;DHT22;6325;49.540;8.364;2022-11-13T15:32:20;10.90;99.90
12520;DHT22;6325;49.540;8.364;2022-11-13T15:35:22;11.30;99.90
12520;DHT22;6325;49.540;8.364;2022-11-13T15:38:09;11.20;99.90
12520;DHT22;6325;49.540;8.364;2022-11-13T15:40:58;11.20;99.90
12520;DHT22;6325;49.540;8.364;2022-11-13T15:46:54;11.60;99.90
12520;DHT22;6325;49.540;8.364;2022-11-13T15:49:55;11.30;99.90
12520;DHT22;6325;49.540;8.364;2022-11-13T15:52:46;10.50;99.90
12520;DHT22;6325;49.540;8.364;2022-11-13T15:55:45;10.60;99.90
12520;DHT22;6325;49.540;8.364;2022-11-13T15:58:32;10.50;99.90
12520;DHT22;6325;49.540;8.364;2022-11-13T16:09:41;10.20;99.90
12520;DHT22;6325;49.540;8.364;2022-11-13T16:18:50;10.10;99.90
12520;DHT22;6325;49.540;8.364;2022-11-13T16:22:04;8.90;99.90
12520;DHT22;6325;49.540;8.364;2022-11-13T16:24:49;9.60;99.90
12520;DHT22;6325;49.540;8.364;2022-11-13T16:27:21;9.90;99.90
12520;DHT22;6325;49.540;8.364;2022-11-13T16:29:50;9.50;99.90
12520;DHT22;6325;49.540;8.364;2022-11-13T16:32:17;10.00;99.90
12520;DHT22;6325;49.540;8.364;2022-11-13T16:34:58;9.40;99.90
12520;DHT22;6325;49.540;8.364;2022-11-13T16:37:29;9.30;99.90
12520;DHT22;6325;49.540;8.364;2022-11-13T16:39:57;9.20;99.90
12520;DHT22;6325;49.540;8.364;2022-11-13T16:42:25;9.20;99.90
12520;DHT22;6325;49.540;8.364;2022-11-13T16:44:54;9.40;99.90
12520;DHT22;6325;49.540;8.364;2022-11-13T16:47:24;9.20;99.90
12520;DHT22;6325;49.540;8.364;2022-11-13T16:49:59;9.10;99.90
12520;DHT22;6325;49.540;8.364;2022-11-13T16:52:29;8.80;99.90
12520;DHT22;6325;49.540;8.364;2022-11-13T16:55:01;9.00;99.90
12520;DHT22;6325;49.540;8.364;2022-11-13T16:57:45;9.00;99.90
12520;DHT22;6325;49.540;8.364;2022-11-13T17:00:25;9.00;99.90
12520;DHT22;6325;49.540;8.364;2022-11-13T17:03:27;8.90;99.90
12520;DHT22;6325;49.540;8.364;2022-11-13T17:06:19;8.60;99.90
12520;DHT22;6325;49.540;8.364;2022-11-13T17:08:51;8.80;99.90
12520;DHT22;6325;49.540;8.364;2022-11-13T17:11:25;8.90;99.90
12520;DHT22;6325;49.540;8.364;2022-11-13T17:13:54;9.20;99.90
12520;DHT22;6325;49.540;8.364;2022-11-13T17:16:22;9.30;99.90
12520;DHT22;6325;49.540;8.364;2022-11-13T17:18:50;8.00;99.90
12520;DHT22;6325;49.540;8.364;2022-11-13T17:21:18;8.30;99.90
12520;DHT22;6325;49.540;8.364;2022-11-13T17:23:45;8.60;99.90
12520;DHT22;6325;49.540;8.364;2022-11-13T17:26:15;8.20;99.90
12520;DHT22;6325;49.540;8.364;2022-11-13T17:28:49;8.00;99.90
12520;DHT22;6325;49.540;8.364;2022-11-13T17:31:16;8.40;99.90
12520;DHT22;6325;49.540;8.364;2022-11-13T17:33:46;8.20;99.90
12520;DHT22;6325;49.540;8.364;2022-11-13T17:36:18;8.30;99.90
12520;DHT22;6325;49.540;8.364;2022-11-13T17:38:45;8.20;99.90
12520;DHT22;6325;49.540;8.364;2022-11-13T17:41:15;8.90;99.90
12520;DHT22;6325;49.540;8.364;2022-11-13T17:43:52;8.00;99.90
12520;DHT22;6325;49.540;8.364;2022-11-13T17:46:34;8.70;99.90
12520;DHT22;6325;49.540;8.364;2022-11-13T17:49:15;8.80;99.90
12520;DHT22;6325;49.540;8.364;2022-11-13T17:51:43;8.30;99.90
12520;DHT22;6325;49.540;8.364;2022-11-13T17:54:14;8.60;99.90
12520;DHT22;6325;49.540;8.364;2022-11-13T17:56:47;8.60;99.90
12520;DHT22;6325;49.540;8.364;2022-11-13T17:59:36;8.30;99.90
12520;DHT22;6325;49.540;8.364;2022-11-13T18:02:20;7.90;99.90
12520;DHT22;6325;49.540;8.364;2022-11-13T18:04:52;7.20;99.90
12520;DHT22;6325;49.540;8.364;2022-11-13T18:07:22;7.50;99.90
12520;DHT22;6325;49.540;8.364;2022-11-13T18:09:56;7.90;99.90
12520;DHT22;6325;49.540;8.364;2022-11-13T18:12:23;7.30;99.90
12520;DHT22;6325;49.540;8.364;2022-11-13T18:14:52;7.80;99.90
12520;DHT22;6325;49.540;8.364;2022-11-13T18:17:19;8.00;99.90
12520;DHT22;6325;49.540;8.364;2022-11-13T18:19:47;7.60;99.90
12520;DHT22;6325;49.540;8.364;2022-11-13T18:22:15;7.10;99.90
12520;DHT22;6325;49.540;8.364;2022-11-13T18:24:48;8.10;99.90
12520;DHT22;6325;49.540;8.364;2022-11-13T18:27:17;7.40;99.90
12520;DHT22;6325;49.540;8.364;2022-11-13T18:29:46;7.70;99.90
12520;DHT22;6325;49.540;8.364;2022-11-13T18:32:17;7.50;99.90
12520;DHT22;6325;49.540;8.364;2022-11-13T18:34:44;7.70;99.90
12520;DHT22;6325;49.540;8.364;2022-11-13T18:37:34;6.80;99.90
12520;DHT22;6325;49.540;8.364;2022-11-13T18:40:03;8.00;99.90
12520;DHT22;6325;49.540;8.364;2022-11-13T18:42:30;7.30;99.90
12520;DHT22;6325;49.540;8.364;2022-11-13T18:45:53;6.90;99.90
12520;DHT22;6325;49.540;8.364;2022-11-13T18:48:15;7.80;99.90
12520;DHT22;6325;49.540;8.364;2022-11-13T18:50:54;6.90;99.90
12520;DHT22;6325;49.540;8.364;2022-11-13T18:53:21;7.30;99.90
12520;DHT22;6325;49.540;8.364;2022-11-13T18:55:48;7.50;99.90
12520;DHT22;6325;49.540;8.364;2022-11-13T18:58:20;7.20;99.90
12520;DHT22;6325;49.540;8.364;2022-11-13T19:00:53;7.50;99.90
12520;DHT22;6325;49.540;8.364;2022-11-13T19:03:22;7.30;99.90
12520;DHT22;6325;49.540;8.364;2022-11-13T19:05:50;6.70;99.90
12520;DHT22;6325;49.540;8.364;2022-11-13T19:08:22;7.90;99.90
12520;DHT22;6325;49.540;8.364;2022-11-13T19:11:01;7.10;99.90
12520;DHT22;6325;49.540;8.364;2022-11-13T19:13:44;7.20;99.90
12520;DHT22;6325;49.540;8.364;2022-11-13T19:16:22;7.40;99.90
12520;DHT22;6325;49.540;8.364;2022-11-13T19:18:58;7.20;99.90
12520;DHT22;6325;49.540;8.364;2022-11-13T19:21:30;6.80;99.90
12520;DHT22;6325;49.540;8.364;2022-11-13T19:23:58;6.90;99.90
12520;DHT22;6325;49.540;8.364;2022-11-13T19:26:30;6.90;99.90
12520;DHT22;6325;49.540;8.364;2022-11-13T19:29:17;6.70;99.90
12520;DHT22;6325;49.540;8.364;2022-11-13T19:32:00;6.70;99.90
12520;DHT22;6325;49.540;8.364;2022-11-13T19:34:33;6.90;99.90
12520;DHT22;6325;49.540;8.364;2022-11-13T19:37:02;7.20;99.90
12520;DHT22;6325;49.540;8.364;2022-11-13T19:39:29;7.20;99.90
12520;DHT22;6325;49.540;8.364;2022-11-13T19:41:57;6.40;99.90
12520;DHT22;6325;49.540;8.364;2022-11-13T19:44:27;7.40;99.90
12520;DHT22;6325;49.540;8.364;2022-11-13T19:46:55;6.90;99.90
12520;DHT22;6325;49.540;8.364;2022-11-13T19:49:24;7.10;99.90
12520;DHT22;6325;49.540;8.364;2022-11-13T19:52:14;7.30;99.90
12520;DHT22;6325;49.540;8.364;2022-11-13T19:54:44;6.80;99.90
12520;DHT22;6325;49.540;8.364;2022-11-13T19:57:29;6.40;99.90
12520;DHT22;6325;49.540;8.364;2022-11-13T20:00:20;6.70;99.90
12520;DHT22;6325;49.540;8.364;2022-11-13T20:03:05;7.30;99.90
12520;DHT22;6325;49.540;8.364;2022-11-13T20:05:33;6.70;99.90
12520;DHT22;6325;49.540;8.364;2022-11-13T20:08:06;6.70;99.90
12520;DHT22;6325;49.540;8.364;2022-11-13T20:10:54;6.20;99.90
12520;DHT22;6325;49.540;8.364;2022-11-13T20:13:36;6.60;99.90
12520;DHT22;6325;49.540;8.364;2022-11-13T20:16:11;6.50;99.90
12520;DHT22;6325;49.540;8.364;2022-11-13T20:18:40;6.50;99.90
12520;DHT22;6325;49.540;8.364;2022-11-13T20:21:09;6.60;99.90
12520;DHT22;6325;49.540;8.364;2022-11-13T20:23:38;6.60;99.90
12520;DHT22;6325;49.540;8.364;2022-11-13T20:26:07;6.50;99.90
12520;DHT22;6325;49.540;8.364;2022-11-13T20:28:34;6.60;99.90
12520;DHT22;6325;49.540;8.364;2022-11-13T20:31:03;6.60;99.90
12520;DHT22;6325;49.540;8.364;2022-11-13T20:33:36;6.50;99.90
12520;DHT22;6325;49.540;8.364;2022-11-13T20:36:04;6.80;99.90
12520;DHT22;6325;49.540;8.364;2022-11-13T20:38:42;6.80;99.90
12520;DHT22;6325;49.540;8.364;2022-11-13T20:41:11;6.20;99.90
12520;DHT22;6325;49.540;8.364;2022-11-13T20:43:43;6.80;99.90
12520;DHT22;6325;49.540;8.364;2022-11-13T20:46:17;6.20;99.90
12520;DHT22;6325;49.540;8.364;2022-11-13T20:48:47;5.80;99.90
12520;DHT22;6325;49.540;8.364;2022-11-13T20:51:17;6.40;99.90
12520;DHT22;6325;49.540;8.364;2022-11-13T20:53:51;6.50;99.90
12520;DHT22;6325;49.540;8.364;2022-11-13T20:56:20;6.40;99.90
12520;DHT22;6325;49.540;8.364;2022-11-13T20:58:48;6.20;99.90
12520;DHT22;6325;49.540;8.364;2022-11-13T21:01:17;6.50;99.90
12520;DHT22;6325;49.540;8.364;2022-11-13T21:03:45;5.90;99.90
12520;DHT22;6325;49.540;8.364;2022-11-13T21:06:14;6.30;99.90
12520;DHT22;6325;49.540;8.364;2022-11-13T21:08:42;6.20;99.90
12520;DHT22;6325;49.540;8.364;2022-11-13T21:11:16;7.00;99.90
12520;DHT22;6325;49.540;8.364;2022-11-13T21:13:48;6.10;99.90
12520;DHT22;6325;49.540;8.364;2022-11-13T21:16:19;6.10;99.90
12520;DHT22;6325;49.540;8.364;2022-11-13T21:18:47;6.60;99.90
12520;DHT22;6325;49.540;8.364;2022-11-13T21:21:17;6.10;99.90
12520;DHT22;6325;49.540;8.364;2022-11-13T21:23:49;6.40;99.90
12520;DHT22;6325;49.540;8.364;2022-11-13T21:26:19;6.10;99.90
12520;DHT22;6325;49.540;8.364;2022-11-13T21:28:48;6.20;99.90
12520;DHT22;6325;49.540;8.364;2022-11-13T21:31:25;6.30;99.90
12520;DHT22;6325;49.540;8.364;2022-11-13T21:33:53;6.10;99.90
12520;DHT22;6325;49.540;8.364;2022-11-13T21:36:23;6.40;99.90
12520;DHT22;6325;49.540;8.364;2022-11-13T21:38:54;6.50;99.90
12520;DHT22;6325;49.540;8.364;2022-11-13T21:41:35;6.00;99.90
12520;DHT22;6325;49.540;8.364;2022-11-13T21:44:06;6.20;99.90
12520;DHT22;6325;49.540;8.364;2022-11-13T21:46:36;5.90;99.90
12520;DHT22;6325;49.540;8.364;2022-11-13T21:49:04;6.40;99.90
12520;DHT22;6325;49.540;8.364;2022-11-13T21:51:34;6.30;99.90
12520;DHT22;6325;49.540;8.364;2022-11-13T21:54:03;6.10;99.90
12520;DHT22;6325;49.540;8.364;2022-11-13T21:56:32;5.20;99.90
12520;DHT22;6325;49.540;8.364;2022-11-13T21:59:01;6.10;99.90
12520;DHT22;6325;49.540;8.364;2022-11-13T22:01:29;6.10;99.90
12520;DHT22;6325;49.540;8.364;2022-11-13T22:03:56;6.00;99.90
12520;DHT22;6325;49.540;8.364;2022-11-13T22:06:25;5.80;99.90
12520;DHT22;6325;49.540;8.364;2022-11-13T22:08:53;5.50;99.90
12520;DHT22;6325;49.540;8.364;2022-11-13T22:11:23;6.00;99.90
12520;DHT22;6325;49.540;8.364;2022-11-13T22:13:51;5.80;99.90
12520;DHT22;6325;49.540;8.364;2022-11-13T22:16:20;5.30;99.90
12520;DHT22;6325;49.540;8.364;2022-11-13T22:18:50;5.10;99.90
12520;DHT22;6325;49.540;8.364;2022-11-13T22:21:19;5.30;99.90
12520;DHT22;6325;49.540;8.364;2022-11-13T22:23:46;5.30;99.90
12520;DHT22;6325;49.540;8.364;2022-11-13T22:26:15;5.70;99.90
12520;DHT22;6325;49.540;8.364;2022-11-13T22:28:43;5.90;99.90
12520;DHT22;6325;49.540;8.364;2022-11-13T22:31:13;4.90;99.90
12520;DHT22;6325;49.540;8.364;2022-11-13T22:33:42;4.60;99.90
12520;DHT22;6325;49.540;8.364;2022-11-13T22:36:10;5.40;99.90
12520;DHT22;6325;49.540;8.364;2022-11-13T22:38:38;5.60;99.90
12520;DHT22;6325;49.540;8.364;2022-11-13T22:41:06;5.60;99.90
12520;DHT22;6325;49.540;8.364;2022-11-13T22:43:36;5.50;99.90
12520;DHT22;6325;49.540;8.364;2022-11-13T22:46:04;5.90;99.90
12520;DHT22;6325;49.540;8.364;2022-11-13T22:48:33;5.40;99.90
12520;DHT22;6325;49.540;8.364;2022-11-13T22:51:06;5.70;99.90
12520;DHT22;6325;49.540;8.364;2022-11-13T22:53:35;5.40;99.90
12520;DHT22;6325;49.540;8.364;2022-11-13T22:56:04;6.10;99.90
12520;DHT22;6325;49.540;8.364;2022-11-13T22:58:32;5.60;99.90
12520;DHT22;6325;49.540;8.364;2022-11-13T23:01:03;6.10;99.90
12520;DHT22;6325;49.540;8.364;2022-11-13T23:03:31;6.10;99.90
12520;DHT22;6325;49.540;8.364;2022-11-13T23:06:00;5.60;99.90
12520;DHT22;6325;49.540;8.364;2022-11-13T23:08:30;5.60;99.90
12520;DHT22;6325;49.540;8.364;2022-11-13T23:11:02;6.20;99.90
12520;DHT22;6325;49.540;8.364;2022-11-13T23:13:30;6.30;99.90
12520;DHT22;6325;49.540;8.364;2022-11-13T23:15:57;6.70;99.90
12520;DHT22;6325;49.540;8.364;2022-11-13T23:18:24;6.20;99.90
12520;DHT22;6325;49.540;8.364;2022-11-13T23:20:51;6.40;99.90
12520;DHT22;6325;49.540;8.364;2022-11-13T23:23:18;7.30;99.90
12520;DHT22;6325;49.540;8.364;2022-11-13T23:25:47;6.40;99.90
12520;DHT22;6325;49.540;8.364;2022-11-13T23:28:14;7.00;99.90
12520;DHT22;6325;49.540;8.364;2022-11-13T23:30:41;6.60;99.90
12520;DHT22;6325;49.540;8.364;2022-11-13T23:33:08;6.70;99.90
12520;DHT22;6325;49.540;8.364;2022-11-13T23:35:35;6.70;99.90
12520;DHT22;6325;49.540;8.364;2022-11-13T23:38:02;6.60;99.90
12520;DHT22;6325;49.540;8.364;2022-11-13T23:40:29;6.30;99.90
12520;DHT22;6325;49.540;8.364;2022-11-13T23:42:57;6.10;99.90
12520;DHT22;6325;49.540;8.364;2022-11-13T23:45:24;7.20;99.90
12520;DHT22;6325;49.540;8.364;2022-11-13T23:47:51;7.10;99.90
12520;DHT22;6325;49.540;8.364;2022-11-13T23:50:18;6.60;99.90
12520;DHT22;6325;49.540;8.364;2022-11-13T23:52:46;6.80;99.90
12520;DHT22;6325;49.540;8.364;2022-11-13T23:55:16;7.00;99.90
12520;DHT22;6325;49.540;8.364;2022-11-13T23:57:43;6.20;99.90
